Weather at Lauppes Strip

Public forecast

Using degrees Fahrenheit for public forecast. Weather courtesy of forecast.io.

Closest aviation weather report (METAR) to Lauppes Strip

Closest report is Sacramento International Airport, 3.8 nm (7.1 km) S. Retrieved 2020/12/01 15:53 UTC (57 minutes ago):

KSMF 011553Z 00000KT 10SM CLR 02/01 A3023 RMK AO2 SLP237 T00220006

Closest aviation forecast (TAF) to Lauppes Strip

Closest forecast is Sacramento International Airport, 3.8 nm (7.1 km) S. Retrieved 2020/12/01 12:28 UTC (4 hours ago):

TAF KSMF 011125Z 0112/0212 29005KT P6SM FEW250 FM020100 35010KT P6SM SKC FM020300 VRB03KT P6SM SKC